createdAt,value
2022-08-17T01:01:26.998Z,36.07
2022-08-17T01:04:50.957Z,36.07
2022-08-17T01:08:00.030Z,45.39
2022-08-17T01:11:24.032Z,46.67
2022-08-17T01:14:36.031Z,45.83
2022-08-17T01:18:01.996Z,46.52
2022-08-17T01:21:14.103Z,46.73
2022-08-17T01:24:39.004Z,46.71
2022-08-17T01:27:51.043Z,47.79
2022-08-17T01:31:16.208Z,46.83
2022-08-17T01:34:36.865Z,47.04
2022-08-17T01:37:53.059Z,47.09
2022-08-17T01:41:07.178Z,48.24
2022-08-17T01:44:31.114Z,50.11
2022-08-17T01:47:32.091Z,48.92
2022-08-17T01:50:56.123Z,48.78
2022-08-17T01:54:08.113Z,48.46
2022-08-17T01:57:35.125Z,47.62
2022-08-17T02:00:59.735Z,48.23
2022-08-17T02:04:01.141Z,48.10
2022-08-17T02:07:01.140Z,48.74
2022-08-17T02:10:20.371Z,48.34
2022-08-17T02:13:28.186Z,47.98
2022-08-17T02:16:52.203Z,48.82
2022-08-17T02:20:04.234Z,49.48
2022-08-17T02:23:28.210Z,49.83
2022-08-17T02:26:40.231Z,50.54
2022-08-17T02:31:01.562Z,48.98
2022-08-17T02:33:19.275Z,49.70
2022-08-17T02:36:32.273Z,49.78
2022-08-17T02:39:34.288Z,52.18
2022-08-17T02:42:58.282Z,49.65
2022-08-17T02:46:12.264Z,49.87
2022-08-17T02:49:25.278Z,49.66
2022-08-17T02:52:42.361Z,49.64
2022-08-17T02:55:50.353Z,49.66
2022-08-17T02:59:02.324Z,49.21
2022-08-17T03:02:29.345Z,49.80
2022-08-17T03:05:41.330Z,49.49
2022-08-17T03:08:54.375Z,48.48
2022-08-17T03:12:07.335Z,48.57
2022-08-17T03:15:32.360Z,49.97
2022-08-17T03:18:46.408Z,49.95
2022-08-17T03:22:00.377Z,50.61
2022-08-17T03:25:00.388Z,51.13
2022-08-17T03:28:25.431Z,51.33
2022-08-17T03:31:34.441Z,51.99
2022-08-17T03:35:01.408Z,52.36
2022-08-17T03:38:02.493Z,52.01
2022-08-17T03:41:15.429Z,51.90
2022-08-17T03:44:27.477Z,51.71
2022-08-17T03:47:57.254Z,54.46
2022-08-17T03:51:15.919Z,53.15
2022-08-17T03:54:46.163Z,52.75
2022-08-17T03:57:47.540Z,50.95
2022-08-17T04:01:11.550Z,50.77
2022-08-17T04:04:35.503Z,50.34
2022-08-17T04:07:49.501Z,52.38
2022-08-17T04:11:02.564Z,50.73
2022-08-17T04:14:03.565Z,53.29
2022-08-17T04:17:28.537Z,53.16
2022-08-17T04:20:40.570Z,50.81
2022-08-17T04:24:07.586Z,50.16
2022-08-17T04:27:08.557Z,50.41
2022-08-17T04:30:34.583Z,50.02
2022-08-17T04:33:46.606Z,51.27
2022-08-17T04:37:10.615Z,52.76
2022-08-17T04:40:29.084Z,53.06
2022-08-17T04:43:53.607Z,52.04
2022-08-17T04:46:54.781Z,51.25
2022-08-17T04:50:07.695Z,50.57
2022-08-17T04:53:08.659Z,49.70
2022-08-17T04:56:35.681Z,49.31
2022-08-17T04:59:36.688Z,49.62
2022-08-17T05:03:08.717Z,49.30
2022-08-17T05:06:09.719Z,48.76
2022-08-17T05:09:33.730Z,48.93
2022-08-17T05:12:47.734Z,49.61
2022-08-17T05:16:11.760Z,50.82
2022-08-17T05:19:12.742Z,50.59
2022-08-17T05:22:36.789Z,53.29
2022-08-17T05:25:48.748Z,52.96
2022-08-17T05:29:14.769Z,53.55
2022-08-17T05:32:39.006Z,52.28
2022-08-17T05:35:56.827Z,52.91
2022-08-17T05:38:58.841Z,53.76
2022-08-17T05:42:22.870Z,52.83
2022-08-17T05:45:39.971Z,53.46
2022-08-17T05:49:00.891Z,54.13
2022-08-17T05:52:20.117Z,56.23
2022-08-17T05:55:42.865Z,55.15
2022-08-17T05:59:03.886Z,54.96
2022-08-17T06:02:31.889Z,53.62
2022-08-17T06:06:01.910Z,53.84
2022-08-17T06:09:14.938Z,55.34
2022-08-17T06:12:42.953Z,54.62
2022-08-17T06:15:52.922Z,54.52
2022-08-17T06:19:18.908Z,55.39
2022-08-17T06:22:30.920Z,54.31
2022-08-17T06:25:54.938Z,54.54
2022-08-17T06:29:08.224Z,54.04
2022-08-17T06:32:31.989Z,53.66
2022-08-17T06:35:46.043Z,55.35
2022-08-17T06:39:11.981Z,55.08
2022-08-17T06:42:54.813Z,55.94
2022-08-17T06:45:50.025Z,55.04
2022-08-17T06:49:03.077Z,55.19
2022-08-17T06:52:45.430Z,54.58
2022-08-17T06:55:41.049Z,54.72
2022-08-17T06:59:05.055Z,55.75
2022-08-17T07:02:04.037Z,56.06
2022-08-17T07:05:30.075Z,55.25
2022-08-17T07:08:44.071Z,55.51
2022-08-17T07:12:08.124Z,55.91
2022-08-17T07:15:21.136Z,55.88
2022-08-17T07:18:46.141Z,56.32
2022-08-17T07:22:02.062Z,57.27
2022-08-17T07:25:28.156Z,56.25
2022-08-17T07:28:40.134Z,57.28
2022-08-17T07:32:04.173Z,56.71
2022-08-17T07:35:24.149Z,56.21
2022-08-17T07:38:48.210Z,56.54
2022-08-17T07:42:02.166Z,55.92
2022-08-17T07:45:28.262Z,55.06
2022-08-17T07:48:40.220Z,55.40
2022-08-17T07:52:48.549Z,55.00
2022-08-17T07:55:06.285Z,54.75
2022-08-17T07:58:33.279Z,54.68
2022-08-17T08:01:41.797Z,53.40
2022-08-17T08:05:00.916Z,52.02
2022-08-17T08:08:14.281Z,52.26
2022-08-17T08:11:44.098Z,51.61
2022-08-17T08:14:54.298Z,51.17
2022-08-17T08:18:19.296Z,50.89
2022-08-17T08:21:31.297Z,50.94
2022-08-17T08:25:04.305Z,50.64
2022-08-17T08:28:18.298Z,49.87
2022-08-17T08:31:45.345Z,49.75
2022-08-17T08:38:23.382Z,48.75
2022-08-17T08:41:38.369Z,48.60
2022-08-17T08:45:04.628Z,48.18
2022-08-17T08:48:53.407Z,48.32
2022-08-17T08:51:53.420Z,48.16
2022-08-17T08:55:05.404Z,47.66
2022-08-17T08:58:31.510Z,47.44
2022-08-17T09:01:40.447Z,48.05
2022-08-17T09:05:14.478Z,47.25
2022-08-17T09:08:22.453Z,47.22
2022-08-17T09:12:01.766Z,47.84
2022-08-17T09:15:00.520Z,47.91
2022-08-17T09:19:03.386Z,47.50
2022-08-17T09:21:38.491Z,47.69
2022-08-17T09:25:02.542Z,47.42
2022-08-17T09:28:15.501Z,47.57
2022-08-17T09:31:46.404Z,47.19
2022-08-17T09:34:52.561Z,47.49
2022-08-17T09:38:19.746Z,46.54
2022-08-17T09:41:32.586Z,46.48
2022-08-17T09:44:57.579Z,46.56
2022-08-17T09:48:07.603Z,46.04
2022-08-17T09:51:31.570Z,45.80
2022-08-17T09:54:45.613Z,45.54
2022-08-17T09:58:12.623Z,45.08
2022-08-17T10:01:24.646Z,44.72
2022-08-17T10:04:50.610Z,44.36
2022-08-17T10:08:03.645Z,44.06
2022-08-17T10:11:33.856Z,43.70
2022-08-17T10:14:55.669Z,43.70
2022-08-17T10:18:33.104Z,43.64
2022-08-17T10:21:44.168Z,43.25
2022-08-17T10:25:23.894Z,43.33
2022-08-17T10:28:30.011Z,43.24
2022-08-17T10:31:52.747Z,43.60
2022-08-17T10:35:13.695Z,43.27
2022-08-17T10:38:53.692Z,43.06
2022-08-17T10:42:05.722Z,42.60
2022-08-17T10:45:31.731Z,42.76
2022-08-17T10:48:50.762Z,42.72
2022-08-17T10:52:14.859Z,42.67
2022-08-17T10:55:33.832Z,42.43
2022-08-17T10:58:59.761Z,42.46
2022-08-17T11:02:24.790Z,42.53
2022-08-17T11:05:59.832Z,41.91
2022-08-17T11:09:49.790Z,42.66
2022-08-17T11:13:14.857Z,42.34
2022-08-17T11:16:45.817Z,41.67
2022-08-17T11:20:49.858Z,100.00
2022-08-17T11:24:38.975Z,41.38
2022-08-17T11:28:04.827Z,41.38
2022-08-17T11:31:16.877Z,41.26
2022-08-17T11:34:41.870Z,41.28
2022-08-17T11:38:07.761Z,41.07
2022-08-17T11:41:38.926Z,40.91
2022-08-17T11:44:55.907Z,41.76
2022-08-17T11:48:28.185Z,41.59
2022-08-17T11:51:46.062Z,41.88
2022-08-17T11:55:34.035Z,41.91
2022-08-17T11:58:25.055Z,41.60
2022-08-17T12:02:15.954Z,41.10
2022-08-17T12:05:49.997Z,41.14
2022-08-17T12:09:02.980Z,41.50
2022-08-17T12:12:28.007Z,41.08
2022-08-17T12:15:41.985Z,41.17
2022-08-17T12:19:19.025Z,41.15
2022-08-17T12:22:32.019Z,41.04
2022-08-17T12:25:57.072Z,41.97
2022-08-17T12:29:09.352Z,41.85
2022-08-17T12:32:35.029Z,41.65
2022-08-17T12:35:47.089Z,41.47
2022-08-17T12:39:21.288Z,41.71
2022-08-17T12:42:27.068Z,42.11
2022-08-17T12:45:51.070Z,41.77
2022-08-17T12:49:05.065Z,42.24
2022-08-17T12:52:30.150Z,42.67
2022-08-17T12:55:42.180Z,41.91
2022-08-17T12:59:08.128Z,42.78
2022-08-17T13:02:20.117Z,42.37
2022-08-17T13:05:49.170Z,42.39
2022-08-17T13:09:01.174Z,41.97
2022-08-17T13:12:15.217Z,42.31
2022-08-17T13:15:27.140Z,42.08
2022-08-17T13:19:12.205Z,41.96
2022-08-17T13:22:26.182Z,43.93
2022-08-17T13:25:50.224Z,43.21
2022-08-17T14:18:54.288Z,44.20
2022-08-17T14:21:40.196Z,44.11
2022-08-17T14:24:53.124Z,44.32
2022-08-17T14:28:17.095Z,44.34
2022-08-17T14:31:31.872Z,43.65
2022-08-17T14:34:54.177Z,43.48
2022-08-17T14:38:06.153Z,43.36
2022-08-17T14:41:22.198Z,44.51
2022-08-17T14:44:31.265Z,43.81
2022-08-17T14:47:56.199Z,44.49
2022-08-17T14:51:22.186Z,44.30
2022-08-17T14:54:36.197Z,45.14
2022-08-17T14:57:48.258Z,45.14
2022-08-17T15:01:12.321Z,46.58
2022-08-17T15:04:13.276Z,45.88
2022-08-17T15:07:39.240Z,47.92
2022-08-17T15:10:54.385Z,47.44
2022-08-17T15:14:05.314Z,46.87
2022-08-17T15:17:06.286Z,46.63
2022-08-17T15:20:31.298Z,46.52
2022-08-17T15:23:45.288Z,47.21
2022-08-17T15:27:09.298Z,46.83
2022-08-17T15:30:10.348Z,47.52
2022-08-17T15:33:37.287Z,47.82
2022-08-17T15:36:49.764Z,48.19
2022-08-17T15:40:15.424Z,48.30
2022-08-17T15:43:29.427Z,48.34
2022-08-17T15:46:54.368Z,48.60
2022-08-17T15:50:06.369Z,49.06
2022-08-17T15:53:31.377Z,49.36
2022-08-17T15:56:45.383Z,49.45
2022-08-17T16:00:10.476Z,49.66
2022-08-17T16:03:56.058Z,50.04
2022-08-17T16:06:35.394Z,50.13
2022-08-17T16:09:48.436Z,50.13
2022-08-17T16:13:01.439Z,50.34
2022-08-17T16:16:14.447Z,50.43
2022-08-17T16:19:14.467Z,50.68
2022-08-17T16:22:38.505Z,50.72
2022-08-17T16:25:53.518Z,50.72
2022-08-17T16:29:28.510Z,51.01
2022-08-17T16:32:40.493Z,51.29
2022-08-17T16:36:04.556Z,51.62
2022-08-17T16:39:05.519Z,51.64
2022-08-17T16:42:30.582Z,51.23
2022-08-17T16:45:47.533Z,52.27
2022-08-17T16:48:57.571Z,52.34
2022-08-17T16:51:58.558Z,53.05
2022-08-17T16:55:22.599Z,52.77
2022-08-17T16:58:34.558Z,53.65
2022-08-17T17:02:00.593Z,52.95
2022-08-17T17:05:14.638Z,52.99
2022-08-17T17:08:44.078Z,53.11
2022-08-17T17:11:50.622Z,52.87
2022-08-17T17:15:17.657Z,52.83
2022-08-17T17:18:28.610Z,53.02
2022-08-17T17:21:52.661Z,53.33
2022-08-17T17:25:05.665Z,53.36
2022-08-17T17:28:30.685Z,53.41
2022-08-17T17:31:42.725Z,54.35
2022-08-17T17:35:09.718Z,53.84
2022-08-17T17:38:21.750Z,53.81
2022-08-17T17:41:45.775Z,53.58
2022-08-17T17:44:57.747Z,53.60
2022-08-17T17:48:21.737Z,53.57
2022-08-17T17:52:09.146Z,53.91
2022-08-17T17:55:13.742Z,53.51
2022-08-17T17:58:27.783Z,53.49
2022-08-17T18:01:55.878Z,53.40
2022-08-17T18:05:20.802Z,53.18
2022-08-17T18:08:35.069Z,53.08
2022-08-17T18:12:32.813Z,53.06
2022-08-17T18:15:43.822Z,53.48
2022-08-17T18:19:07.832Z,57.35
2022-08-17T18:22:19.818Z,56.53
2022-08-17T18:26:06.857Z,56.14
2022-08-17T18:29:18.836Z,55.63
2022-08-17T18:32:52.898Z,55.39
2022-08-17T18:36:04.880Z,55.18
2022-08-17T18:39:38.925Z,55.08
2022-08-17T18:42:52.895Z,54.96
2022-08-17T18:46:16.903Z,54.73
2022-08-17T18:49:28.937Z,54.85
2022-08-17T18:52:52.951Z,54.87
2022-08-17T18:55:53.927Z,54.63
2022-08-17T18:59:26.972Z,54.65
2022-08-17T19:02:45.970Z,54.60
2022-08-17T19:06:06.972Z,54.51
2022-08-17T19:09:07.976Z,54.63
2022-08-17T19:12:32.058Z,54.59
2022-08-17T19:15:41.993Z,54.56
2022-08-17T19:19:06.011Z,55.50
2022-08-17T19:22:28.407Z,55.62
2022-08-17T19:25:43.065Z,55.36
2022-08-17T19:28:55.025Z,55.23
2022-08-17T19:32:20.108Z,56.13
2022-08-17T19:35:33.031Z,55.85
2022-08-17T19:39:04.068Z,55.82
2022-08-17T19:42:17.054Z,55.73
2022-08-17T19:45:42.121Z,55.45
2022-08-17T19:48:57.172Z,55.39
2022-08-17T19:52:21.245Z,55.43
2022-08-17T19:55:34.097Z,55.47
2022-08-17T19:59:00.777Z,55.40
2022-08-17T20:02:14.143Z,55.26
2022-08-17T20:06:01.329Z,55.18
2022-08-17T20:08:52.155Z,55.28
2022-08-17T20:12:16.293Z,55.30
2022-08-17T20:15:29.189Z,55.04
2022-08-17T20:18:54.208Z,55.15
2022-08-17T20:22:08.243Z,55.17
2022-08-17T20:25:35.192Z,55.09
2022-08-17T20:28:47.271Z,55.03
2022-08-17T20:32:11.204Z,55.33
2022-08-17T20:35:26.260Z,55.27
2022-08-17T20:39:01.267Z,55.15
2022-08-17T20:42:26.252Z,55.23
2022-08-17T20:46:06.271Z,55.51
2022-08-17T20:49:18.314Z,55.35
2022-08-17T20:53:13.362Z,55.18
2022-08-17T20:56:27.307Z,55.16
2022-08-17T21:00:24.316Z,55.37
2022-08-17T21:04:08.371Z,55.17
2022-08-17T21:07:48.365Z,55.34
2022-08-17T21:11:01.359Z,55.35
2022-08-17T21:14:29.439Z,55.20
2022-08-17T21:18:01.353Z,55.27
2022-08-17T21:21:26.446Z,55.26
2022-08-17T21:24:41.415Z,55.27
2022-08-17T21:28:06.435Z,55.52
2022-08-17T21:31:21.438Z,55.41
2022-08-17T21:34:52.445Z,55.28
2022-08-17T21:38:04.437Z,55.57
2022-08-17T21:41:28.468Z,55.53
2022-08-17T21:44:43.447Z,55.69
2022-08-17T21:48:09.432Z,55.78
2022-08-17T21:51:23.476Z,55.72
2022-08-17T21:54:52.489Z,55.99
2022-08-17T21:58:14.178Z,55.98
2022-08-17T22:01:36.551Z,55.76
2022-08-17T22:05:03.517Z,55.90
2022-08-17T22:08:15.604Z,55.68
2022-08-17T22:11:28.530Z,55.67
2022-08-17T22:14:52.821Z,55.94
2022-08-17T22:18:05.538Z,55.93
2022-08-17T22:21:19.559Z,56.09
2022-08-17T22:24:43.551Z,56.09
2022-08-17T22:28:08.624Z,56.10
2022-08-17T22:31:30.592Z,56.21
2022-08-17T22:34:31.663Z,55.97
2022-08-17T22:37:56.628Z,56.25
2022-08-17T22:41:08.632Z,56.13
2022-08-17T22:44:39.686Z,55.91
2022-08-17T22:47:49.773Z,55.83
2022-08-17T22:51:14.059Z,55.77
2022-08-17T22:54:33.208Z,56.05
2022-08-17T22:58:03.463Z,56.01
2022-08-17T23:01:18.706Z,56.03
2022-08-17T23:04:54.722Z,55.92
2022-08-17T23:08:06.707Z,56.29
2022-08-17T23:11:36.629Z,56.28
2022-08-17T23:14:44.736Z,56.33
2022-08-17T23:18:08.734Z,56.00
2022-08-17T23:21:09.754Z,56.27
2022-08-17T23:24:34.026Z,55.94
2022-08-17T23:27:47.791Z,56.18
2022-08-17T23:31:11.791Z,56.06
2022-08-17T23:34:23.771Z,56.32
2022-08-17T23:37:37.840Z,56.48
2022-08-17T23:40:50.803Z,56.45
2022-08-17T23:44:16.826Z,56.37
2022-08-17T23:47:28.872Z,56.42
2022-08-17T23:50:41.876Z,56.61
2022-08-17T23:53:53.857Z,56.27
2022-08-17T23:57:17.929Z,56.63
